createdAt,value
2022-09-07T00:01:22.661Z,68.96
2022-09-07T00:04:24.586Z,70.34
2022-09-07T00:07:26.653Z,70.89
2022-09-07T00:10:28.973Z,72.89
2022-09-07T00:13:32.035Z,70.83
2022-09-07T00:16:34.042Z,71.51
2022-09-07T00:19:35.901Z,72.36
2022-09-07T00:22:37.985Z,72.00
2022-09-07T00:25:40.238Z,74.93
2022-09-07T00:28:42.501Z,72.60
2022-09-07T00:31:44.360Z,69.57
2022-09-07T00:34:46.246Z,70.01
2022-09-07T00:37:48.122Z,70.99
2022-09-07T00:40:49.985Z,72.73
2022-09-07T00:43:56.025Z,72.24
2022-09-07T00:46:57.900Z,72.90
2022-09-07T00:50:00.669Z,72.98
2022-09-07T00:53:06.556Z,71.92
2022-09-07T00:56:08.404Z,73.47
2022-09-07T00:59:10.677Z,73.89
2022-09-07T01:02:12.584Z,74.29
2022-09-07T01:05:19.346Z,74.48
2022-09-07T01:08:21.211Z,72.07
2022-09-07T01:11:23.254Z,71.17
2022-09-07T01:14:26.753Z,73.32
2022-09-07T01:17:37.512Z,71.41
2022-09-07T01:20:57.346Z,74.36
2022-09-07T01:24:19.930Z,74.86
2022-09-07T01:27:21.731Z,75.15
2022-09-07T01:30:23.609Z,72.27
2022-09-07T01:33:44.559Z,70.72
2022-09-07T01:36:49.589Z,72.91
2022-09-07T01:40:08.090Z,69.72
2022-09-07T01:43:12.035Z,72.37
2022-09-07T01:46:15.981Z,70.88
2022-09-07T01:49:19.478Z,72.11
2022-09-07T01:52:21.268Z,73.21
2022-09-07T01:55:36.810Z,75.88
2022-09-07T01:58:45.376Z,76.25
2022-09-07T02:01:50.034Z,72.95
2022-09-07T02:05:10.582Z,76.26
2022-09-07T02:08:13.797Z,75.30
2022-09-07T02:11:20.435Z,75.13
2022-09-07T02:14:23.253Z,76.11
2022-09-07T02:17:28.205Z,75.93
2022-09-07T02:20:34.778Z,75.88
2022-09-07T02:23:44.706Z,74.67
2022-09-07T02:26:48.441Z,73.39
2022-09-07T02:29:52.160Z,74.93
2022-09-07T02:32:56.286Z,73.88
2022-09-07T02:35:58.241Z,75.81
2022-09-07T02:39:00.062Z,74.42
2022-09-07T02:42:01.890Z,72.49
2022-09-07T02:45:04.377Z,71.09
2022-09-07T02:48:11.376Z,73.34
2022-09-07T02:51:32.538Z,73.28
2022-09-07T02:54:43.215Z,70.93
2022-09-07T02:57:47.947Z,73.90
2022-09-07T03:00:52.444Z,73.19
2022-09-07T03:04:00.456Z,74.05
2022-09-07T03:07:19.291Z,74.69
2022-09-07T03:10:21.144Z,75.42
2022-09-07T03:13:26.933Z,73.15
2022-09-07T03:16:28.841Z,73.25
2022-09-07T03:19:30.699Z,74.34
2022-09-07T03:22:35.515Z,76.97
2022-09-07T03:25:37.389Z,75.20
2022-09-07T03:28:39.255Z,75.91
2022-09-07T03:31:41.139Z,72.60
2022-09-07T03:34:43.019Z,72.22
2022-09-07T03:37:44.964Z,69.84
2022-09-07T03:40:46.773Z,70.38
2022-09-07T03:43:48.642Z,73.05
2022-09-07T03:46:50.467Z,72.60
2022-09-07T03:49:52.386Z,73.20
2022-09-07T03:52:54.219Z,75.96
2022-09-07T03:55:57.001Z,74.89
2022-09-07T03:58:58.837Z,71.90
2022-09-07T04:02:00.983Z,72.95
2022-09-07T04:05:02.982Z,75.55
2022-09-07T04:08:04.881Z,75.92
2022-09-07T04:11:07.326Z,72.83
2022-09-07T04:14:10.060Z,72.36
2022-09-07T04:17:11.978Z,74.78
2022-09-07T04:20:13.827Z,73.44
2022-09-07T04:23:15.700Z,74.26
2022-09-07T04:26:19.359Z,71.92
2022-09-07T04:29:21.193Z,73.68
2022-09-07T04:32:23.306Z,75.68
2022-09-07T04:35:25.180Z,75.33
2022-09-07T04:38:27.548Z,72.13
2022-09-07T04:41:30.303Z,72.92
2022-09-07T04:44:32.185Z,72.65
2022-09-07T04:47:34.034Z,71.78
2022-09-07T04:50:35.877Z,72.05
2022-09-07T04:53:37.940Z,71.22
2022-09-07T04:56:39.843Z,69.90
2022-09-07T04:59:41.661Z,68.04
2022-09-07T05:02:43.613Z,69.48
2022-09-07T05:05:45.554Z,67.05
2022-09-07T05:08:48.413Z,65.08
2022-09-07T05:11:51.090Z,65.03
2022-09-07T05:14:53.022Z,62.54
2022-09-07T05:17:54.972Z,60.25
2022-09-07T05:20:56.783Z,59.75
2022-09-07T05:23:58.954Z,57.51
2022-09-07T05:27:01.886Z,57.54
2022-09-07T05:30:04.990Z,58.71
2022-09-07T05:33:10.990Z,57.47
2022-09-07T05:36:13.294Z,55.11
2022-09-07T05:39:15.169Z,54.33
2022-09-07T05:42:17.015Z,52.49
2022-09-07T05:45:19.256Z,51.86
2022-09-07T05:48:21.151Z,51.64
2022-09-07T05:51:23.008Z,52.29
2022-09-07T05:54:26.938Z,49.70
2022-09-07T05:57:29.171Z,50.77
2022-09-07T06:00:31.846Z,50.93
2022-09-07T06:03:34.819Z,46.86
2022-09-07T06:06:38.527Z,47.86
2022-09-07T06:13:03.430Z,47.72
2022-09-07T06:16:05.980Z,47.83
2022-09-07T06:19:08.276Z,46.93
2022-09-07T06:22:10.505Z,44.98
2022-09-07T06:25:12.581Z,44.20
2022-09-07T06:28:14.863Z,41.79
2022-09-07T06:31:17.793Z,43.83
2022-09-07T06:34:19.902Z,45.08
2022-09-07T06:37:21.989Z,43.62
2022-09-07T06:40:23.878Z,41.59
2022-09-07T06:43:26.068Z,41.41
2022-09-07T06:49:50.088Z,42.13
2022-09-07T06:56:18.144Z,39.69
2022-09-07T06:59:20.120Z,40.27
2022-09-07T07:02:22.387Z,42.68
2022-09-07T07:05:24.498Z,42.32
2022-09-07T07:08:26.544Z,38.03
2022-09-07T07:11:28.498Z,38.89
2022-09-07T07:14:34.188Z,36.72
2022-09-07T07:17:37.012Z,37.63
2022-09-07T07:20:39.524Z,37.40
2022-09-07T07:23:41.662Z,38.75
2022-09-07T07:26:48.594Z,40.27
2022-09-07T07:29:50.602Z,38.86
2022-09-07T07:32:52.527Z,39.56
2022-09-07T07:35:54.420Z,39.21
2022-09-07T07:42:05.739Z,33.49
2022-09-07T07:48:32.020Z,40.26
2022-09-07T07:52:50.029Z,37.23
2022-09-07T07:54:55.747Z,36.13
2022-09-07T07:57:57.670Z,34.98
2022-09-07T08:01:03.359Z,35.62
2022-09-07T08:04:05.360Z,35.70
2022-09-07T08:07:10.606Z,34.35
2022-09-07T08:10:13.087Z,34.42
2022-09-07T08:13:19.434Z,34.20
2022-09-07T08:16:21.376Z,33.32
2022-09-07T08:19:23.300Z,34.07
2022-09-07T08:22:25.233Z,30.88
2022-09-07T08:25:28.736Z,31.61
2022-09-07T08:28:31.483Z,29.59
2022-09-07T08:31:33.384Z,30.61
2022-09-07T08:34:35.792Z,32.15
2022-09-07T08:37:37.573Z,34.54
2022-09-07T08:40:39.445Z,31.44
2022-09-07T08:43:42.412Z,31.22
2022-09-07T08:46:47.682Z,29.39
2022-09-07T08:49:54.020Z,28.32
2022-09-07T08:53:07.985Z,29.09
2022-09-07T08:56:16.268Z,27.43
2022-09-07T08:59:25.353Z,31.40
2022-09-07T09:02:30.101Z,31.70
2022-09-07T09:05:36.931Z,29.96
2022-09-07T09:08:45.046Z,31.18
2022-09-07T09:11:50.560Z,28.06
2022-09-07T09:15:03.430Z,29.97
2022-09-07T09:18:17.390Z,27.65
2022-09-07T09:21:19.762Z,26.47
2022-09-07T09:24:21.608Z,29.86
2022-09-07T09:27:23.760Z,26.74
2022-09-07T09:30:26.551Z,25.96
2022-09-07T09:33:32.119Z,27.31
2022-09-07T09:36:41.785Z,29.35
2022-09-07T09:39:44.564Z,26.95
2022-09-07T09:42:46.831Z,27.15
2022-09-07T09:49:16.223Z,24.94
2022-09-07T09:52:41.812Z,25.41
2022-09-07T09:55:40.696Z,27.43
2022-09-07T10:05:50.470Z,28.12
2022-09-07T10:08:55.433Z,31.33
2022-09-07T10:12:06.858Z,27.78
2022-09-07T10:15:20.873Z,31.24
2022-09-07T10:18:25.634Z,30.08
2022-09-07T10:21:27.489Z,29.85
2022-09-07T10:24:32.175Z,27.31
2022-09-07T10:27:38.137Z,28.78
2022-09-07T10:30:43.287Z,28.27
2022-09-07T10:34:25.723Z,32.37
2022-09-07T10:37:08.440Z,32.39
2022-09-07T10:40:13.403Z,31.29
2022-09-07T10:43:22.080Z,31.82
2022-09-07T10:54:29.459Z,32.23
2022-09-07T10:57:04.120Z,33.22
2022-09-07T11:00:13.089Z,34.32
2022-09-07T11:03:26.897Z,33.28
2022-09-07T11:06:35.839Z,32.76
2022-09-07T11:09:41.336Z,33.64
2022-09-07T11:12:43.202Z,33.73
2022-09-07T11:15:46.859Z,34.16
2022-09-07T11:19:35.125Z,34.27
2022-09-07T11:22:16.637Z,33.41
2022-09-07T11:25:30.825Z,32.88
2022-09-07T11:28:45.666Z,30.93
2022-09-07T11:31:49.072Z,30.99
2022-09-07T11:34:55.793Z,31.46
2022-09-07T11:38:03.816Z,28.84
2022-09-07T11:41:24.598Z,27.20
2022-09-07T11:44:31.186Z,25.05
2022-09-07T11:47:38.367Z,26.26
2022-09-07T11:50:43.203Z,26.74
2022-09-07T11:53:46.420Z,27.92
2022-09-07T11:56:51.346Z,29.17
2022-09-07T12:00:12.799Z,28.72
2022-09-07T12:03:26.743Z,28.69
2022-09-07T12:06:40.512Z,30.49
2022-09-07T12:10:01.120Z,28.96
2022-09-07T12:13:08.368Z,30.61
2022-09-07T12:16:10.461Z,28.14
2022-09-07T12:19:19.997Z,22.54
2022-09-07T12:22:22.456Z,25.31
2022-09-07T12:25:25.702Z,22.82
2022-09-07T12:28:34.197Z,20.91
2022-09-07T12:32:00.036Z,22.06
2022-09-07T12:35:28.228Z,24.30
2022-09-07T12:38:30.186Z,24.76
2022-09-07T12:41:42.437Z,27.29
2022-09-07T12:44:44.302Z,26.47
2022-09-07T12:47:46.275Z,29.23
2022-09-07T12:51:06.919Z,28.73
2022-09-07T12:54:27.912Z,29.08
2022-09-07T12:57:38.272Z,30.82
2022-09-07T13:00:43.190Z,29.40
2022-09-07T13:03:57.014Z,27.23
2022-09-07T13:07:09.433Z,25.82
2022-09-07T13:10:26.378Z,26.47
2022-09-07T13:17:18.768Z,28.04
2022-09-07T13:20:24.262Z,27.92
2022-09-07T13:23:26.471Z,30.94
2022-09-07T13:26:51.082Z,29.83
2022-09-07T13:30:00.722Z,30.77
2022-09-07T13:33:21.316Z,30.69
2022-09-07T13:36:28.531Z,33.36
2022-09-07T13:39:32.119Z,33.50
2022-09-07T13:42:34.203Z,32.06
2022-09-07T13:45:47.075Z,32.64
2022-09-07T13:48:50.488Z,31.87
2022-09-07T13:51:54.544Z,32.62
2022-09-07T13:55:15.470Z,33.34
2022-09-07T13:58:28.994Z,33.37
2022-09-07T14:01:31.296Z,32.98
2022-09-07T14:04:33.995Z,34.83
2022-09-07T14:07:35.843Z,32.99
2022-09-07T14:10:37.769Z,33.37
2022-09-07T14:13:39.639Z,33.25
2022-09-07T14:16:42.418Z,33.57
2022-09-07T14:19:50.651Z,32.47
2022-09-07T14:22:53.508Z,33.75
2022-09-07T14:26:23.115Z,32.70
2022-09-07T14:29:26.578Z,33.13
2022-09-07T14:32:28.445Z,33.89
2022-09-07T14:35:34.304Z,34.50
2022-09-07T14:41:59.022Z,33.36
2022-09-07T14:45:19.551Z,32.96
2022-09-07T14:48:29.236Z,33.10
2022-09-07T14:51:36.480Z,31.94
2022-09-07T14:54:39.182Z,32.49
2022-09-07T14:57:41.361Z,32.11
2022-09-07T15:01:37.279Z,31.21
2022-09-07T15:04:16.408Z,31.34
2022-09-07T15:07:47.898Z,31.93
2022-09-07T15:14:12.410Z,32.13
2022-09-07T15:20:44.488Z,32.54
2022-09-07T15:23:51.036Z,32.40
2022-09-07T15:27:08.513Z,31.73
2022-09-07T15:30:10.973Z,32.85
2022-09-07T15:33:12.755Z,33.87
2022-09-07T15:36:15.531Z,32.08
2022-09-07T15:39:20.685Z,31.87
2022-09-07T15:45:44.299Z,34.08
2022-09-07T15:48:50.638Z,34.52
2022-09-07T15:52:07.912Z,31.75
2022-09-07T15:55:11.284Z,32.26
2022-09-07T15:58:13.126Z,32.54
2022-09-07T16:04:38.726Z,34.28
2022-09-07T16:11:18.430Z,34.81
2022-09-07T16:14:20.958Z,33.45
2022-09-07T16:17:27.343Z,34.72
2022-09-07T16:20:32.882Z,34.68
2022-09-07T16:23:34.814Z,33.93
2022-09-07T16:26:36.765Z,34.02
2022-09-07T16:29:38.922Z,34.01
2022-09-07T16:32:44.352Z,34.44
2022-09-07T16:35:59.828Z,34.82
2022-09-07T16:39:02.013Z,35.43
2022-09-07T16:42:04.157Z,35.80
2022-09-07T16:48:28.069Z,36.31
2022-09-07T16:51:30.058Z,35.44
2022-09-07T16:54:32.661Z,35.93
2022-09-07T17:00:56.732Z,35.66
2022-09-07T17:03:58.722Z,35.73
2022-09-07T17:07:00.686Z,36.37
2022-09-07T17:10:02.609Z,36.87
2022-09-07T17:13:09.184Z,36.99
2022-09-07T17:16:21.817Z,36.85
2022-09-07T17:19:31.122Z,36.79
2022-09-07T17:22:33.484Z,36.76
2022-09-07T17:25:35.440Z,37.10
2022-09-07T17:28:37.495Z,37.15
2022-09-07T17:35:01.277Z,39.41
2022-09-07T17:39:14.415Z,38.31
2022-09-07T17:41:27.654Z,37.79
2022-09-07T17:44:34.762Z,36.13
2022-09-07T17:47:39.578Z,36.27
2022-09-07T17:50:42.502Z,36.61
2022-09-07T17:53:45.561Z,38.12
2022-09-07T17:56:47.916Z,37.26
2022-09-07T18:03:12.856Z,36.79
2022-09-07T18:06:14.732Z,37.55
2022-09-07T18:09:16.582Z,38.11
2022-09-07T18:12:18.427Z,38.69
2022-09-07T18:15:22.174Z,40.31
2022-09-07T18:18:23.997Z,40.30
2022-09-07T18:21:27.533Z,40.52
2022-09-07T18:24:29.673Z,41.40
2022-09-07T18:27:31.619Z,41.43
2022-09-07T18:30:39.304Z,41.16
2022-09-07T18:33:41.398Z,40.44
2022-09-07T18:36:44.057Z,40.68
2022-09-07T18:39:46.345Z,40.06
2022-09-07T18:42:48.252Z,41.19
2022-09-07T18:45:50.152Z,40.78
2022-09-07T18:48:53.916Z,40.91
2022-09-07T18:55:17.626Z,42.87
2022-09-07T18:58:19.491Z,42.74
2022-09-07T19:01:23.037Z,43.49
2022-09-07T19:04:25.174Z,43.36
2022-09-07T19:07:29.829Z,44.81
2022-09-07T19:10:35.928Z,44.95
2022-09-07T19:13:37.910Z,44.13
2022-09-07T19:16:39.874Z,45.88
2022-09-07T19:19:42.084Z,44.44
2022-09-07T19:22:43.928Z,44.36
2022-09-07T19:25:45.750Z,44.63
2022-09-07T19:28:54.085Z,44.20
2022-09-07T19:32:05.299Z,44.38
2022-09-07T19:35:07.330Z,44.81
2022-09-07T19:38:09.163Z,46.14
2022-09-07T19:41:13.055Z,45.91
2022-09-07T19:44:14.889Z,47.40
2022-09-07T19:47:16.784Z,47.09
2022-09-07T19:50:21.829Z,46.28
2022-09-07T19:53:24.817Z,45.97
2022-09-07T19:56:26.853Z,46.05
2022-09-07T19:59:28.691Z,44.91
2022-09-07T20:02:30.521Z,45.46
2022-09-07T20:05:32.421Z,46.37
2022-09-07T20:08:34.492Z,46.39
2022-09-07T20:11:36.401Z,46.63
2022-09-07T20:14:38.272Z,46.71
2022-09-07T20:17:40.091Z,47.54
2022-09-07T20:20:41.906Z,47.00
2022-09-07T20:23:43.733Z,47.84
2022-09-07T20:26:45.550Z,48.20
2022-09-07T20:29:47.388Z,48.90
2022-09-07T20:32:49.224Z,49.37
2022-09-07T20:35:51.247Z,50.73
2022-09-07T20:38:55.032Z,51.54
2022-09-07T20:41:56.888Z,48.44
2022-09-07T20:44:58.793Z,49.25
2022-09-07T20:48:00.706Z,49.43
2022-09-07T20:51:04.325Z,49.03
2022-09-07T20:54:07.056Z,49.12
2022-09-07T20:57:08.874Z,49.57
2022-09-07T21:00:10.742Z,49.71
2022-09-07T21:03:14.666Z,50.53
2022-09-07T21:06:16.586Z,49.75
2022-09-07T21:09:18.903Z,49.87
2022-09-07T21:12:20.712Z,49.78
2022-09-07T21:15:22.541Z,50.60
2022-09-07T21:18:24.405Z,50.57
2022-09-07T21:21:27.257Z,51.53
2022-09-07T21:24:29.104Z,54.12
2022-09-07T21:27:38.084Z,53.47
2022-09-07T21:30:40.309Z,52.42
2022-09-07T21:33:42.296Z,51.43
2022-09-07T21:36:46.120Z,52.47
2022-09-07T21:39:48.122Z,53.64
2022-09-07T21:42:50.977Z,51.23
2022-09-07T21:45:52.807Z,51.35
2022-09-07T21:48:55.163Z,51.42
2022-09-07T21:51:56.984Z,53.84
2022-09-07T21:54:58.836Z,50.63
2022-09-07T21:58:01.046Z,52.47
2022-09-07T22:01:13.780Z,54.81
2022-09-07T22:04:15.656Z,53.48
2022-09-07T22:07:17.528Z,52.09
2022-09-07T22:10:19.395Z,51.72
2022-09-07T22:13:21.190Z,52.29
2022-09-07T22:16:23.321Z,52.22
2022-09-07T22:19:25.157Z,52.66
2022-09-07T22:22:27.009Z,55.54
2022-09-07T22:25:28.795Z,54.97
2022-09-07T22:28:30.712Z,53.25
2022-09-07T22:31:33.601Z,55.24
2022-09-07T22:34:35.481Z,54.91
2022-09-07T22:37:37.304Z,53.32
2022-09-07T22:40:39.129Z,52.37
2022-09-07T22:43:41.243Z,52.97
2022-09-07T22:46:43.721Z,53.51
2022-09-07T22:49:45.654Z,53.07
2022-09-07T22:52:47.428Z,54.17
2022-09-07T22:55:49.243Z,53.62
2022-09-07T22:58:52.032Z,55.70
2022-09-07T23:01:54.158Z,54.88
2022-09-07T23:04:56.300Z,53.50
2022-09-07T23:07:58.124Z,52.42
2022-09-07T23:11:05.115Z,53.48
2022-09-07T23:14:08.384Z,55.94
2022-09-07T23:17:13.880Z,54.94
2022-09-07T23:20:16.337Z,55.73
2022-09-07T23:23:18.242Z,53.71
2022-09-07T23:26:20.498Z,57.09
2022-09-07T23:29:22.522Z,57.46
2022-09-07T23:32:24.396Z,59.39
2022-09-07T23:35:26.192Z,56.95
2022-09-07T23:38:28.139Z,58.76
2022-09-07T23:41:30.150Z,60.26
2022-09-07T23:44:31.968Z,58.28
2022-09-07T23:47:33.955Z,57.57
2022-09-07T23:50:35.738Z,58.48
2022-09-07T23:53:37.662Z,57.42
2022-09-07T23:56:39.499Z,58.17
2022-09-07T23:59:41.332Z,55.78
